Ana Sayfa
METAR-TAF:

METAR-TAF

Havaalanları :

Opelousas, Louisiana, Amerika Birleşik Devletleri

Enlem: 30-33-30N, Boylam: 092-05-58W, yükseklik: 23 m

Güncel hava durumu gözlemi

Rapor saat 16:50 UTC de 52 dakika önce yapıldı.
Rüzgar batı/güneybatıdan 4 kt
Sıcaklık 31°C
Nem 63%
Basınç 1016 hPa
Görüş mesafesi: 16.1 km
3000 ft yükseklikte parçalı bulutlu

METAR: KOPL 251650Z AUTO 24004KT 10SM SCT030 31/23 A2999 RMK AO2 T03100233

Saat: 12:42 (17:42 UTC)


TAF: eksik

4.000'den fazla havaalanı için hava durumu gözlemleri ve tahminleri (METAR ve TAF raporları).

Kullanılabilir istasyonlar harita üzerinde sarı ve kırmızı noktalarla gösterilir.

İstasyonun adını görmek için fareyi noktanın üzerinde gezdirin.

Sonrasında hava gözlem ve tahminlerini görmek için tıklayın.

Haritayı değiştirmek için: yaklaştırmak için siyah artı işaretli yeşil düğmeye ve uzaklaştırmak için de eksi işaretli düğmeye hızla tıklayın; bitişik haritalar için yeşil okları kullanın.


METAR-TAF: